createdAt,value
2022-12-23T00:01:23.215Z,14.13
2022-12-23T00:03:49.732Z,14.15
2022-12-23T00:06:17.831Z,14.40
2022-12-23T00:08:44.349Z,15.80
2022-12-23T00:11:14.800Z,13.50
2022-12-23T00:13:59.821Z,14.02
2022-12-23T00:16:26.269Z,13.65
2022-12-23T00:18:54.339Z,13.32
2022-12-23T00:21:21.747Z,11.90
2022-12-23T00:23:50.278Z,12.65
2022-12-23T00:26:20.074Z,13.77
2022-12-23T00:28:46.428Z,15.30
2022-12-23T00:31:13.770Z,14.88
2022-12-23T00:33:42.893Z,14.85
2022-12-23T00:36:19.660Z,12.15
2022-12-23T00:39:05.218Z,15.23
2022-12-23T00:41:50.677Z,15.13
2022-12-23T00:44:17.137Z,13.93
2022-12-23T00:46:43.621Z,16.80
2022-12-23T00:49:31.968Z,15.88
2022-12-23T00:51:59.010Z,15.13
2022-12-23T00:54:25.647Z,14.90
2022-12-23T00:56:52.205Z,15.75
2022-12-23T00:59:18.724Z,15.77
2022-12-23T01:02:04.343Z,16.15
2022-12-23T01:04:49.397Z,15.43
2022-12-23T01:07:16.212Z,14.30
2022-12-23T01:09:42.908Z,13.80
2022-12-23T01:12:09.534Z,13.60
2022-12-23T01:14:36.687Z,14.00
2022-12-23T01:17:03.369Z,12.57
2022-12-23T01:19:29.807Z,12.75
2022-12-23T01:21:56.171Z,14.75
2022-12-23T01:24:23.026Z,12.32
2022-12-23T01:26:49.403Z,11.18
2022-12-23T01:29:15.734Z,13.30
2022-12-23T01:31:42.163Z,13.13
2022-12-23T01:34:08.563Z,12.07
2022-12-23T01:36:34.959Z,12.18
2022-12-23T01:39:01.381Z,12.65
2022-12-23T01:41:50.176Z,10.63
2022-12-23T01:44:52.021Z,12.48
2022-12-23T01:47:33.815Z,10.95
2022-12-23T01:50:14.709Z,12.32
2022-12-23T01:52:47.845Z,11.80
2022-12-23T01:55:17.492Z,12.07
2022-12-23T01:57:44.879Z,12.30
2022-12-23T02:00:30.482Z,12.80
2022-12-23T02:03:15.333Z,13.60
2022-12-23T02:05:44.498Z,12.57
2022-12-23T02:08:30.104Z,13.82
2022-12-23T02:11:28.103Z,13.43
2022-12-23T02:14:37.831Z,14.35
2022-12-23T02:17:21.391Z,13.63
2022-12-23T02:20:18.171Z,14.90
2022-12-23T02:23:08.082Z,13.77
2022-12-23T02:26:11.974Z,15.45
2022-12-23T02:28:52.477Z,14.18
2022-12-23T02:31:29.609Z,15.15
2022-12-23T02:34:17.218Z,13.05
2022-12-23T02:37:02.935Z,15.27
2022-12-23T02:39:42.478Z,13.07
2022-12-23T02:42:15.447Z,15.10
2022-12-23T02:45:01.832Z,14.40
2022-12-23T02:47:34.526Z,13.82
2022-12-23T02:50:09.433Z,13.70
2022-12-23T02:52:38.349Z,14.07
2022-12-23T02:55:13.126Z,15.65
2022-12-23T02:57:44.781Z,16.48
2022-12-23T03:00:12.498Z,15.95
2022-12-23T03:02:41.635Z,15.40
2022-12-23T03:05:28.071Z,16.02
2022-12-23T03:08:00.168Z,16.02
2022-12-23T03:11:05.398Z,15.93
2022-12-23T03:13:41.040Z,15.13
2022-12-23T03:16:10.455Z,16.17
2022-12-23T03:18:56.519Z,16.80
2022-12-23T03:21:35.551Z,17.10
2022-12-23T03:24:14.011Z,16.85
2022-12-23T03:26:52.108Z,17.48
2022-12-23T03:29:32.299Z,16.00
2022-12-23T03:32:02.763Z,15.98
2022-12-23T03:34:36.538Z,14.98
2022-12-23T03:37:08.084Z,16.15
2022-12-23T03:39:47.039Z,15.07
2022-12-23T03:42:20.880Z,13.93
2022-12-23T03:45:11.156Z,12.95
2022-12-23T03:47:48.935Z,11.38
2022-12-23T03:50:19.410Z,11.65
2022-12-23T03:52:59.669Z,11.00
2022-12-23T03:55:54.056Z,11.10
2022-12-23T03:58:26.563Z,11.02
2022-12-23T04:01:00.515Z,11.73
2022-12-23T04:03:48.478Z,10.00
2022-12-23T04:06:16.690Z,10.57
2022-12-23T04:08:45.921Z,8.85
2022-12-23T04:11:12.966Z,8.07
2022-12-23T04:13:39.375Z,8.25
2022-12-23T04:16:06.685Z,7.82
2022-12-23T04:18:33.303Z,7.40
2022-12-23T04:20:59.823Z,9.00
2022-12-23T04:23:26.233Z,7.90
2022-12-23T04:25:52.576Z,7.60
2022-12-23T04:28:20.083Z,7.05
2022-12-23T04:30:46.567Z,7.90
2022-12-23T04:33:13.167Z,8.00
2022-12-23T04:35:39.674Z,8.10
2022-12-23T04:38:06.084Z,7.95
2022-12-23T04:40:32.445Z,7.40
2022-12-23T04:42:58.779Z,8.73
2022-12-23T04:45:25.166Z,7.85
2022-12-23T04:47:51.625Z,8.27
2022-12-23T04:50:18.129Z,7.90
2022-12-23T04:52:44.730Z,8.60
2022-12-23T04:55:11.362Z,8.02
2022-12-23T04:57:37.843Z,8.13
2022-12-23T05:00:05.246Z,8.90
2022-12-23T05:02:31.710Z,8.50
2022-12-23T05:04:58.187Z,9.32
2022-12-23T05:07:24.908Z,9.52
2022-12-23T05:09:51.351Z,10.23
2022-12-23T05:12:17.829Z,10.07
2022-12-23T05:14:44.314Z,10.52
2022-12-23T05:17:10.631Z,10.82
2022-12-23T05:19:37.165Z,11.13
2022-12-23T05:22:03.541Z,10.90
2022-12-23T05:24:29.884Z,10.07
2022-12-23T05:26:59.995Z,11.13
2022-12-23T05:29:27.046Z,11.75
2022-12-23T05:31:53.546Z,10.90
2022-12-23T05:34:20.152Z,11.60
2022-12-23T05:36:46.575Z,11.40
2022-12-23T05:39:13.054Z,11.63
2022-12-23T05:41:39.525Z,11.10
2022-12-23T05:44:05.967Z,11.10
2022-12-23T05:46:32.620Z,10.57
2022-12-23T05:48:59.332Z,9.93
2022-12-23T05:51:25.775Z,9.77
2022-12-23T05:53:52.179Z,11.18
2022-12-23T05:56:18.772Z,10.32
2022-12-23T05:58:45.232Z,9.85
2022-12-23T06:01:11.559Z,8.90
2022-12-23T06:03:38.198Z,10.13
2022-12-23T06:06:05.086Z,9.90
2022-12-23T06:08:31.428Z,9.70
2022-12-23T06:10:59.908Z,9.75
2022-12-23T06:13:26.400Z,9.65
2022-12-23T06:15:52.831Z,9.65
2022-12-23T06:18:19.236Z,8.77
2022-12-23T06:20:47.607Z,9.80
2022-12-23T06:23:14.118Z,9.70
2022-12-23T06:25:40.526Z,9.23
2022-12-23T06:28:07.820Z,8.50
2022-12-23T06:30:34.503Z,8.07
2022-12-23T06:33:01.647Z,8.27
2022-12-23T06:35:28.210Z,8.07
2022-12-23T06:37:54.727Z,11.35
2022-12-23T06:40:21.585Z,9.77
2022-12-23T06:42:47.999Z,8.07
2022-12-23T06:45:14.748Z,9.43
2022-12-23T06:47:41.153Z,7.82
2022-12-23T06:50:08.997Z,7.53
2022-12-23T06:52:35.795Z,7.57
2022-12-23T06:55:02.337Z,7.72
2022-12-23T06:57:28.767Z,7.80
2022-12-23T06:59:55.946Z,7.70
2022-12-23T07:02:22.577Z,8.00
2022-12-23T07:04:49.225Z,7.38
2022-12-23T07:07:15.557Z,7.28
2022-12-23T07:09:41.975Z,7.90
2022-12-23T07:12:08.472Z,8.13
2022-12-23T07:14:35.090Z,8.10
2022-12-23T07:17:01.666Z,8.52
2022-12-23T07:19:28.178Z,8.18
2022-12-23T07:21:54.891Z,8.10
2022-12-23T07:24:21.384Z,8.18
2022-12-23T07:26:47.972Z,7.70
2022-12-23T07:29:14.573Z,8.30
2022-12-23T07:31:41.575Z,7.72
2022-12-23T07:34:08.625Z,8.05
2022-12-23T07:36:35.588Z,7.88
2022-12-23T07:39:02.449Z,6.70
2022-12-23T07:41:29.210Z,7.75
2022-12-23T07:43:55.567Z,7.25
2022-12-23T07:46:22.564Z,7.80
2022-12-23T07:48:49.408Z,7.82
2022-12-23T07:51:15.836Z,6.60
2022-12-23T07:53:42.605Z,6.30
2022-12-23T07:56:09.488Z,7.05
2022-12-23T07:58:36.159Z,7.03
2022-12-23T08:01:08.723Z,6.70
2022-12-23T08:03:35.697Z,7.45
2022-12-23T08:06:14.280Z,7.85
2022-12-23T08:11:10.219Z,7.88
2022-12-23T08:13:39.348Z,7.30
2022-12-23T08:16:10.237Z,8.13
2022-12-23T08:18:41.201Z,8.02
2022-12-23T08:21:19.677Z,8.13
2022-12-23T08:23:47.597Z,8.38
2022-12-23T08:26:17.237Z,8.23
2022-12-23T08:28:44.800Z,9.10
2022-12-23T08:31:21.259Z,9.05
2022-12-23T08:33:50.219Z,8.55
2022-12-23T08:36:23.019Z,8.80
2022-12-23T08:38:52.193Z,9.55
2022-12-23T08:41:23.630Z,9.65
2022-12-23T08:43:50.602Z,8.90
2022-12-23T08:46:18.350Z,9.77
2022-12-23T08:48:49.083Z,9.13
2022-12-23T08:51:18.009Z,10.45
2022-12-23T08:53:45.290Z,11.02
2022-12-23T08:56:15.284Z,9.07
2022-12-23T08:58:47.684Z,10.43
2022-12-23T09:01:17.296Z,10.30
2022-12-23T09:03:44.550Z,11.32
2022-12-23T09:06:14.373Z,10.85
2022-12-23T09:08:41.671Z,12.73
2022-12-23T09:11:17.281Z,11.02
2022-12-23T09:13:44.172Z,12.82
2022-12-23T09:16:11.486Z,10.27
2022-12-23T09:18:38.532Z,12.93
2022-12-23T09:21:11.708Z,10.38
2022-12-23T09:23:38.030Z,12.82
2022-12-23T09:26:05.353Z,12.85
2022-12-23T09:28:31.765Z,12.52
2022-12-23T09:30:58.132Z,12.70
2022-12-23T09:33:24.615Z,12.90
2022-12-23T09:35:51.018Z,13.80
2022-12-23T09:38:17.403Z,14.27
2022-12-23T09:40:43.904Z,14.30
2022-12-23T09:43:22.196Z,15.13
2022-12-23T09:46:05.993Z,14.48
2022-12-23T09:48:45.501Z,11.88
2022-12-23T09:51:13.673Z,14.85
2022-12-23T09:53:55.892Z,14.65
2022-12-23T09:56:34.179Z,15.40
2022-12-23T09:59:14.611Z,13.95
2022-12-23T10:02:00.798Z,13.20
2022-12-23T10:04:45.531Z,14.57
2022-12-23T10:07:26.432Z,12.02
2022-12-23T10:09:55.285Z,14.30
2022-12-23T10:12:40.535Z,14.57
2022-12-23T10:15:21.472Z,13.05
2022-12-23T10:17:52.619Z,13.05
2022-12-23T10:20:30.244Z,13.55
2022-12-23T10:22:57.525Z,12.90
2022-12-23T10:25:33.157Z,14.82
2022-12-23T10:27:59.537Z,13.63
2022-12-23T10:30:53.963Z,13.05
2022-12-23T10:33:21.994Z,12.07
2022-12-23T10:35:53.338Z,13.55
2022-12-23T10:38:26.410Z,13.02
2022-12-23T10:41:28.573Z,12.93
2022-12-23T10:44:04.158Z,10.85
2022-12-23T10:46:45.663Z,12.95
2022-12-23T10:49:30.767Z,12.32
2022-12-23T10:52:06.729Z,14.43
2022-12-23T10:54:34.812Z,13.98
2022-12-23T10:57:02.859Z,13.48
2022-12-23T10:59:32.354Z,14.27
2022-12-23T11:02:20.943Z,15.50
2022-12-23T11:04:49.634Z,15.20
2022-12-23T11:10:15.844Z,14.68
2022-12-23T11:12:45.631Z,16.52
2022-12-23T11:15:39.705Z,16.40
2022-12-23T11:18:12.238Z,18.30
2022-12-23T11:20:40.850Z,15.57
2022-12-23T11:23:23.771Z,14.30
2022-12-23T11:26:03.776Z,18.52
2022-12-23T11:28:32.765Z,17.00
2022-12-23T11:31:09.484Z,19.23
2022-12-23T11:33:39.816Z,17.63
2022-12-23T11:36:08.338Z,19.92
2022-12-23T11:38:37.770Z,20.75
2022-12-23T11:41:05.611Z,19.35
2022-12-23T11:43:33.095Z,21.25
2022-12-23T11:46:28.935Z,21.27
2022-12-23T11:49:05.961Z,20.90
2022-12-23T11:51:32.449Z,22.13
2022-12-23T11:54:02.713Z,22.20
2022-12-23T11:56:36.206Z,18.50
2022-12-23T11:59:07.839Z,19.50
2022-12-23T12:01:36.284Z,21.73
2022-12-23T12:04:09.292Z,19.48
2022-12-23T12:06:42.185Z,20.80
2022-12-23T12:09:12.881Z,20.08
2022-12-23T12:11:46.621Z,20.20
2022-12-23T12:14:22.852Z,19.13
2022-12-23T12:17:27.495Z,18.75
2022-12-23T12:20:06.442Z,19.73
2022-12-23T12:22:43.588Z,18.40
2022-12-23T12:25:17.847Z,17.60
2022-12-23T12:27:51.824Z,18.05
2022-12-23T12:30:20.788Z,16.60
2022-12-23T12:33:12.071Z,17.30
2022-12-23T12:35:45.567Z,15.55
2022-12-23T12:38:38.995Z,15.50
2022-12-23T12:41:33.560Z,16.20
2022-12-23T12:44:37.396Z,16.90
2022-12-23T12:47:36.098Z,15.13
2022-12-23T12:50:02.294Z,13.32
2022-12-23T12:52:35.720Z,14.30
2022-12-23T12:55:13.850Z,13.07
2022-12-23T12:57:40.962Z,13.38
2022-12-23T13:00:17.894Z,14.15
2022-12-23T13:03:12.298Z,11.98
2022-12-23T13:06:00.782Z,12.40
2022-12-23T13:11:15.999Z,13.35
2022-12-23T13:14:00.806Z,13.57
2022-12-23T13:16:43.132Z,14.73
2022-12-23T13:19:31.043Z,12.80
2022-12-23T13:22:16.273Z,13.75
2022-12-23T13:25:03.522Z,14.02
2022-12-23T13:27:33.906Z,13.70
2022-12-23T13:30:14.444Z,13.80
2022-12-23T13:33:05.031Z,12.20
2022-12-23T13:35:46.223Z,12.95
2022-12-23T13:38:34.145Z,12.88
2022-12-23T13:41:05.839Z,11.60
2022-12-23T13:43:57.274Z,12.27
2022-12-23T13:46:46.073Z,13.15
2022-12-23T13:49:31.467Z,11.05
2022-12-23T13:52:19.422Z,13.90
2022-12-23T13:55:23.215Z,13.60
2022-12-23T13:58:00.856Z,13.05
2022-12-23T14:00:32.827Z,11.00
2022-12-23T14:03:02.319Z,12.50
2022-12-23T14:05:41.063Z,11.90
2022-12-23T14:08:20.064Z,12.18
2022-12-23T14:11:00.072Z,11.55
2022-12-23T14:13:51.284Z,12.85
2022-12-23T14:16:40.984Z,11.48
2022-12-23T14:19:26.132Z,11.32
2022-12-23T14:22:19.025Z,11.85
2022-12-23T14:25:11.213Z,12.40
2022-12-23T14:27:52.823Z,9.93
2022-12-23T14:30:32.837Z,11.82
2022-12-23T14:33:02.004Z,10.38
2022-12-23T14:35:34.254Z,10.65
2022-12-23T14:38:13.739Z,11.27
2022-12-23T14:40:43.396Z,12.25
2022-12-23T14:43:21.955Z,11.30
2022-12-23T14:45:53.387Z,10.75
2022-12-23T14:48:41.563Z,11.00
2022-12-23T14:51:11.063Z,10.65
2022-12-23T14:54:00.329Z,10.35
2022-12-23T14:56:38.584Z,8.63
2022-12-23T14:59:29.300Z,10.00
2022-12-23T15:02:00.333Z,10.50
2022-12-23T15:04:45.213Z,9.75
2022-12-23T15:07:27.679Z,9.95
2022-12-23T15:10:00.996Z,8.38
2022-12-23T15:12:35.271Z,9.32
2022-12-23T15:15:29.297Z,9.60
2022-12-23T15:18:09.531Z,9.43
2022-12-23T15:20:35.978Z,8.30
2022-12-23T15:23:09.858Z,9.13
2022-12-23T15:25:43.520Z,9.38
2022-12-23T15:28:22.407Z,10.05
2022-12-23T15:30:53.609Z,10.35
2022-12-23T15:34:00.952Z,10.30
2022-12-23T15:36:10.440Z,10.23
2022-12-23T15:38:38.980Z,10.30
2022-12-23T15:41:14.914Z,10.50
2022-12-23T15:43:43.484Z,9.63
2022-12-23T15:48:41.777Z,9.60
2022-12-23T15:51:50.092Z,10.45
2022-12-23T15:54:29.193Z,10.15
2022-12-23T15:56:58.486Z,10.38
2022-12-23T15:59:32.995Z,11.10
2022-12-23T16:02:32.071Z,11.02
2022-12-23T16:04:56.292Z,10.98
2022-12-23T16:07:42.271Z,10.82
2022-12-23T16:10:15.780Z,12.50
2022-12-23T16:12:43.546Z,12.95
2022-12-23T16:15:27.842Z,13.23
2022-12-23T16:18:23.736Z,12.43
2022-12-23T16:20:53.956Z,12.70
2022-12-23T16:23:21.413Z,9.85
2022-12-23T16:25:51.139Z,12.70
2022-12-23T16:28:24.086Z,12.40
2022-12-23T16:30:57.130Z,13.82
2022-12-23T16:33:32.579Z,13.85
2022-12-23T16:36:22.091Z,14.15
2022-12-23T16:38:51.295Z,15.07
2022-12-23T16:41:19.463Z,14.00
2022-12-23T16:43:52.138Z,15.90
2022-12-23T16:46:21.896Z,14.75
2022-12-23T16:48:55.410Z,15.68
2022-12-23T16:51:23.450Z,16.15
2022-12-23T16:53:51.708Z,15.97
2022-12-23T16:56:20.340Z,15.98
2022-12-23T17:01:24.996Z,16.45
2022-12-23T17:03:51.888Z,16.73
2022-12-23T17:06:20.391Z,16.17
2022-12-23T17:08:48.055Z,17.52
2022-12-23T17:11:17.671Z,17.23
2022-12-23T17:13:44.903Z,16.48
2022-12-23T17:16:17.840Z,16.88
2022-12-23T17:18:44.289Z,18.27
2022-12-23T17:21:39.149Z,12.90
2022-12-23T17:24:11.350Z,13.70
2022-12-23T17:26:37.771Z,13.98
2022-12-23T17:29:05.496Z,14.27
2022-12-23T17:31:33.907Z,14.03
2022-12-23T17:34:01.076Z,13.35
2022-12-23T17:36:27.649Z,13.30
2022-12-23T17:38:54.026Z,12.57
2022-12-23T17:41:28.477Z,11.70
2022-12-23T17:43:55.067Z,12.38
2022-12-23T17:46:21.973Z,11.77
2022-12-23T17:48:48.548Z,11.05
2022-12-23T17:51:17.239Z,10.98
2022-12-23T17:53:44.688Z,11.88
2022-12-23T17:56:21.831Z,11.10
2022-12-23T17:58:49.796Z,11.32
2022-12-23T18:01:26.274Z,12.23
2022-12-23T18:03:53.477Z,10.57
2022-12-23T18:06:21.625Z,10.25
2022-12-23T18:08:48.575Z,6.75
2022-12-23T18:11:29.665Z,6.07
2022-12-23T18:13:56.197Z,5.82
2022-12-23T18:16:22.617Z,5.35
2022-12-23T18:18:49.046Z,5.95
2022-12-23T18:21:25.142Z,5.68
2022-12-23T18:23:54.722Z,7.03
2022-12-23T18:26:21.219Z,6.05
2022-12-23T18:28:47.770Z,6.35
2022-12-23T18:31:18.101Z,7.30
2022-12-23T18:33:45.221Z,5.30
2022-12-23T18:36:32.883Z,6.60
2022-12-23T18:38:59.870Z,5.22
2022-12-23T18:41:27.163Z,6.82
2022-12-23T18:43:54.182Z,5.63
2022-12-23T18:46:20.784Z,7.05
2022-12-23T18:48:47.825Z,6.20
2022-12-23T18:51:20.068Z,5.88
2022-12-23T18:53:47.838Z,7.43
2022-12-23T18:56:16.173Z,5.97
2022-12-23T18:58:42.741Z,6.22
2022-12-23T19:01:13.541Z,6.13
2022-12-23T19:03:40.975Z,6.15
2022-12-23T19:06:09.641Z,5.28
2022-12-23T19:11:10.534Z,6.70
2022-12-23T19:13:36.859Z,5.63
2022-12-23T19:16:03.603Z,5.45
2022-12-23T19:18:29.964Z,5.45
2022-12-23T19:20:56.323Z,5.13
2022-12-23T19:23:22.787Z,5.57
2022-12-23T19:25:55.335Z,5.03
2022-12-23T19:28:23.541Z,4.82
2022-12-23T19:30:50.068Z,5.13
2022-12-23T19:33:19.634Z,5.05
2022-12-23T19:35:46.129Z,4.95
2022-12-23T19:38:12.801Z,6.03
2022-12-23T19:40:39.375Z,5.53
2022-12-23T19:43:05.727Z,4.78
2022-12-23T19:45:32.142Z,4.88
2022-12-23T19:47:58.704Z,5.53
2022-12-23T19:50:27.026Z,5.35
2022-12-23T19:52:54.707Z,4.88
2022-12-23T19:55:21.207Z,6.00
2022-12-23T19:57:47.563Z,5.63
2022-12-23T20:00:15.942Z,5.55
2022-12-23T20:02:43.223Z,4.65
2022-12-23T20:05:10.085Z,5.55
2022-12-23T20:07:37.114Z,4.70
2022-12-23T20:10:05.557Z,5.28
2022-12-23T20:12:32.148Z,5.80
2022-12-23T20:14:58.604Z,5.10
2022-12-23T20:17:25.246Z,5.40
2022-12-23T20:19:51.730Z,4.32
2022-12-23T20:22:18.132Z,6.53
2022-12-23T20:24:51.046Z,4.30
2022-12-23T20:27:20.157Z,4.63
2022-12-23T20:29:49.243Z,6.13
2022-12-23T20:32:15.584Z,4.35
2022-12-23T20:34:41.950Z,5.20
2022-12-23T20:37:08.541Z,5.13
2022-12-23T20:39:37.132Z,4.35
2022-12-23T20:42:03.848Z,4.10
2022-12-23T20:44:35.697Z,5.03
2022-12-23T20:47:03.590Z,3.58
2022-12-23T20:49:30.221Z,3.90
2022-12-23T20:51:57.185Z,3.22
2022-12-23T20:54:29.749Z,3.08
2022-12-23T20:56:58.937Z,3.65
2022-12-23T20:59:25.781Z,3.45
2022-12-23T21:01:52.272Z,3.22
2022-12-23T21:04:18.852Z,2.25
2022-12-23T21:06:45.454Z,2.42
2022-12-23T21:09:13.932Z,2.88
2022-12-23T21:11:43.537Z,3.92
2022-12-23T21:14:10.632Z,3.67
2022-12-23T21:16:38.466Z,3.80
2022-12-23T21:19:06.705Z,3.75
2022-12-23T21:21:33.612Z,3.55
2022-12-23T21:24:04.038Z,3.75
2022-12-23T21:26:31.363Z,4.97
2022-12-23T21:28:59.432Z,4.35
2022-12-23T21:31:27.794Z,5.13
2022-12-23T21:33:54.854Z,5.00
2022-12-23T21:36:24.434Z,3.30
2022-12-23T21:38:51.634Z,4.30
2022-12-23T21:41:20.511Z,4.03
2022-12-23T21:43:47.468Z,5.25
2022-12-23T21:46:17.063Z,4.38
2022-12-23T21:48:44.367Z,3.40
2022-12-23T21:51:21.112Z,3.53
2022-12-23T21:53:49.998Z,4.57
2022-12-23T21:56:18.574Z,3.58
2022-12-23T21:58:45.290Z,3.63
2022-12-23T22:01:20.124Z,4.38
2022-12-23T22:03:48.690Z,5.47
2022-12-23T22:06:22.063Z,3.08
2022-12-23T22:08:49.431Z,3.70
2022-12-23T22:11:19.140Z,3.92
2022-12-23T22:13:46.515Z,3.20
2022-12-23T22:16:19.400Z,3.72
2022-12-23T22:18:46.810Z,3.38
2022-12-23T22:21:15.901Z,3.72
2022-12-23T22:23:42.950Z,3.45
2022-12-23T22:26:12.005Z,3.38
2022-12-23T22:28:39.360Z,5.20
2022-12-23T22:31:10.684Z,4.93
2022-12-23T22:33:37.073Z,3.75
2022-12-23T22:36:04.247Z,3.80
2022-12-23T22:38:30.600Z,3.55
2022-12-23T22:40:57.042Z,3.47
2022-12-23T22:43:23.465Z,3.08
2022-12-23T22:46:01.042Z,3.67
2022-12-23T22:48:29.456Z,4.27
2022-12-23T22:51:07.511Z,3.70
2022-12-23T22:53:33.872Z,3.83
2022-12-23T22:56:00.939Z,3.35
2022-12-23T22:58:28.420Z,2.97
2022-12-23T23:00:54.936Z,4.07
2022-12-23T23:03:21.721Z,4.13
2022-12-23T23:06:03.486Z,4.07
2022-12-23T23:08:30.828Z,4.13
2022-12-23T23:10:59.437Z,2.95
2022-12-23T23:15:54.599Z,2.95
2022-12-23T23:18:21.333Z,3.58
2022-12-23T23:20:48.060Z,3.45
2022-12-23T23:23:14.510Z,3.80
2022-12-23T23:25:40.994Z,3.08
2022-12-23T23:28:07.476Z,3.45
2022-12-23T23:30:33.847Z,4.03
2022-12-23T23:33:00.187Z,3.25
2022-12-23T23:35:26.865Z,3.53
2022-12-23T23:37:53.370Z,3.40
2022-12-23T23:40:19.913Z,3.60
2022-12-23T23:42:46.421Z,3.75
2022-12-23T23:45:12.785Z,3.35
2022-12-23T23:47:39.167Z,3.55
2022-12-23T23:50:06.548Z,3.35
2022-12-23T23:52:32.968Z,3.65
2022-12-23T23:54:59.664Z,3.78
2022-12-23T23:57:26.385Z,5.53
2022-12-23T23:59:53.061Z,3.45
